Terminal Aerodrome Forecast
Issued by NWS

Home | Current Version | Previous Version | Text Only | Print | Product List | Glossary On
Versions: 1 2 3 4 5 6 7 8 9 10 11 12 13
000
FTUS41 KAKQ 020500 CCA
TAFPHF
TAF COR
KPHF 020559Z 0206/0306 04008KT P6SM -RA SCT004 OVC015
      TEMPO 0206/0208 5SM -RA BKN004
     FM021400 22010G15KT P6SM SCT015 OVC040
     FM021900 20009KT 5SM -RA SCT012 OVC030=

USA.gov is the U.S. government's official web portal to all federal, state and local government web resources and services.